createdAt,value
2018-12-22T00:06:36.229Z,10.60
2018-12-22T00:10:03.144Z,10.50
2018-12-22T00:13:30.644Z,10.60
2018-12-22T00:16:57.627Z,10.60
2018-12-22T00:20:25.387Z,10.60
2018-12-22T00:23:54.314Z,10.60
2018-12-22T00:27:22.448Z,10.50
2018-12-22T00:30:50.632Z,10.60
2018-12-22T00:34:15.413Z,10.60
2018-12-22T00:37:40.057Z,10.50
2018-12-22T00:41:04.780Z,10.60
2018-12-22T00:44:29.442Z,10.50
2018-12-22T00:47:54.083Z,10.50
2018-12-22T00:51:18.822Z,10.50
2018-12-22T00:54:43.605Z,10.40
2018-12-22T00:58:08.290Z,10.40
2018-12-22T01:01:32.918Z,10.40
2018-12-22T01:04:57.587Z,10.40
2018-12-22T01:08:22.193Z,10.40
2018-12-22T01:11:46.863Z,10.40
2018-12-22T01:15:11.568Z,10.30
2018-12-22T01:18:36.267Z,10.20
2018-12-22T01:22:00.955Z,10.10
2018-12-22T01:25:25.605Z,9.90
2018-12-22T01:28:50.280Z,9.70
2018-12-22T01:32:15.128Z,9.60
2018-12-22T01:35:39.881Z,9.60
2018-12-22T01:39:05.483Z,9.60
2018-12-22T01:42:30.448Z,9.60
2018-12-22T01:45:55.115Z,9.60
2018-12-22T01:49:19.838Z,9.60
2018-12-22T01:52:44.548Z,9.70
2018-12-22T01:56:09.343Z,9.80
2018-12-22T01:59:34.046Z,9.80
2018-12-22T02:02:58.703Z,9.80
2018-12-22T02:06:23.466Z,9.70
2018-12-22T02:09:48.189Z,9.70
2018-12-22T02:13:12.949Z,9.60
2018-12-22T02:16:37.672Z,9.60
2018-12-22T02:20:02.377Z,9.50
2018-12-22T02:23:27.110Z,9.50
2018-12-22T02:26:51.779Z,9.50
2018-12-22T02:30:16.386Z,9.50
2018-12-22T02:33:41.053Z,9.50
2018-12-22T02:37:05.709Z,9.40
2018-12-22T02:40:33.209Z,9.40
2018-12-22T02:43:57.866Z,9.40
2018-12-22T02:47:22.584Z,9.30
2018-12-22T02:50:47.305Z,9.30
2018-12-22T02:54:11.957Z,9.20
2018-12-22T02:57:36.601Z,9.20
2018-12-22T03:01:01.213Z,9.20
2018-12-22T03:04:25.902Z,9.20
2018-12-22T03:07:50.541Z,9.30
2018-12-22T03:11:15.309Z,9.30
2018-12-22T03:14:40.071Z,9.40
2018-12-22T03:18:04.776Z,9.50
2018-12-22T03:21:29.477Z,9.50
2018-12-22T03:24:54.245Z,9.50
2018-12-22T03:28:18.920Z,9.50
2018-12-22T03:31:43.599Z,9.50
2018-12-22T03:35:08.417Z,9.40
2018-12-22T03:38:33.261Z,9.50
2018-12-22T03:41:58.052Z,9.50
2018-12-22T03:45:22.794Z,9.40
2018-12-22T03:48:54.203Z,9.30
2018-12-22T03:52:18.926Z,9.30
2018-12-22T03:55:43.585Z,9.30
2018-12-22T03:59:08.375Z,9.30
2018-12-22T04:02:33.026Z,9.30
2018-12-22T04:05:57.782Z,9.20
2018-12-22T04:09:22.544Z,9.20
2018-12-22T04:12:47.452Z,9.20
2018-12-22T04:16:12.155Z,9.20
2018-12-22T04:19:36.851Z,9.30
2018-12-22T04:23:01.511Z,9.20
2018-12-22T04:26:26.405Z,9.30
2018-12-22T04:29:51.215Z,9.30
2018-12-22T04:33:15.935Z,9.30
2018-12-22T04:36:40.649Z,9.40
2018-12-22T04:40:05.754Z,9.30
2018-12-22T04:43:30.510Z,9.40
2018-12-22T04:46:55.291Z,9.50
2018-12-22T04:50:19.974Z,9.40
2018-12-22T04:53:44.634Z,9.50
2018-12-22T04:57:09.264Z,9.50
2018-12-22T05:00:34.144Z,9.40
2018-12-22T05:03:58.762Z,9.30
2018-12-22T05:07:23.436Z,9.40
2018-12-22T05:10:48.055Z,9.40
2018-12-22T05:14:12.744Z,9.40
2018-12-22T05:17:37.472Z,9.50
2018-12-22T05:21:02.265Z,9.50
2018-12-22T05:24:26.919Z,9.50
2018-12-22T05:27:51.578Z,9.50
2018-12-22T05:31:16.267Z,9.50
2018-12-22T05:34:40.947Z,9.50
2018-12-22T05:38:05.601Z,9.60
2018-12-22T05:41:30.210Z,9.60
2018-12-22T05:44:54.870Z,9.50
2018-12-22T05:48:19.519Z,9.50
2018-12-22T05:51:44.197Z,9.60
2018-12-22T05:55:08.892Z,9.50
2018-12-22T05:58:33.548Z,9.50
2018-12-22T06:01:58.206Z,9.60
2018-12-22T06:05:22.896Z,9.50
2018-12-22T06:08:47.581Z,9.50
2018-12-22T06:12:12.224Z,9.50
2018-12-22T06:15:36.875Z,9.50
2018-12-22T06:19:01.500Z,9.40
2018-12-22T06:22:26.198Z,9.30
2018-12-22T06:25:50.853Z,9.20
2018-12-22T06:29:15.511Z,9.20
2018-12-22T06:32:40.154Z,9.10
2018-12-22T06:36:04.965Z,8.90
2018-12-22T06:39:29.687Z,9.00
2018-12-22T06:42:54.375Z,8.90
2018-12-22T06:46:19.246Z,8.90
2018-12-22T06:49:43.955Z,9.00
2018-12-22T06:53:08.834Z,9.00
2018-12-22T06:56:33.521Z,9.00
2018-12-22T06:59:58.161Z,9.10
2018-12-22T07:03:22.778Z,9.10
2018-12-22T07:06:47.473Z,9.20
2018-12-22T07:10:12.299Z,9.20
2018-12-22T07:13:36.907Z,9.10
2018-12-22T07:17:01.620Z,9.10
2018-12-22T07:20:26.437Z,9.10
2018-12-22T07:23:51.109Z,9.10
2018-12-22T07:27:15.772Z,9.20
2018-12-22T07:30:47.066Z,9.30
2018-12-22T07:34:11.786Z,9.20
2018-12-22T07:37:36.485Z,9.20
2018-12-22T07:41:01.155Z,9.20
2018-12-22T07:44:25.826Z,9.20
2018-12-22T07:47:50.499Z,9.20
2018-12-22T07:51:15.232Z,9.30
2018-12-22T07:54:40.063Z,9.30
2018-12-22T07:58:04.933Z,9.30
2018-12-22T08:01:29.732Z,9.30
2018-12-22T08:04:54.473Z,9.40
2018-12-22T08:08:19.201Z,9.40
2018-12-22T08:11:43.935Z,9.40
2018-12-22T08:15:08.915Z,9.50
2018-12-22T08:18:33.536Z,9.50
2018-12-22T08:21:58.187Z,9.60
2018-12-22T08:25:22.974Z,9.60
2018-12-22T08:28:47.681Z,9.70
2018-12-22T08:32:12.545Z,9.70
2018-12-22T08:35:37.394Z,9.70
2018-12-22T08:39:02.135Z,9.80
2018-12-22T08:42:26.841Z,9.80
2018-12-22T08:45:51.578Z,9.90
2018-12-22T08:49:16.168Z,9.80
2018-12-22T08:52:40.778Z,9.70
2018-12-22T08:56:05.606Z,9.70
2018-12-22T08:59:30.220Z,9.60
2018-12-22T09:02:54.979Z,9.80
2018-12-22T09:06:19.620Z,10.00
2018-12-22T09:09:44.280Z,10.10
2018-12-22T09:13:08.918Z,10.20
2018-12-22T09:16:33.634Z,10.20
2018-12-22T09:19:58.328Z,10.30
2018-12-22T09:23:22.953Z,10.30
2018-12-22T09:26:47.616Z,10.20
2018-12-22T09:30:13.954Z,10.10
2018-12-22T09:33:38.696Z,10.00
2018-12-22T09:37:03.447Z,10.00
2018-12-22T09:40:28.213Z,10.00
2018-12-22T09:43:52.980Z,10.00
2018-12-22T09:47:17.592Z,10.00
2018-12-22T09:50:42.250Z,10.10
2018-12-22T09:54:07.038Z,10.10
2018-12-22T09:57:31.823Z,10.10
2018-12-22T10:01:00.320Z,10.20
2018-12-22T10:04:25.251Z,10.20
2018-12-22T10:07:49.914Z,10.30
2018-12-22T10:11:14.560Z,10.30
2018-12-22T10:14:39.338Z,10.30
2018-12-22T10:18:04.056Z,10.40
2018-12-22T10:21:28.725Z,10.40
2018-12-22T10:24:53.407Z,10.50
2018-12-22T10:28:18.442Z,10.50
2018-12-22T10:31:43.136Z,10.50
2018-12-22T10:35:13.243Z,10.60
2018-12-22T10:38:37.955Z,10.70
2018-12-22T10:42:02.687Z,10.70
2018-12-22T10:45:27.386Z,10.70
2018-12-22T10:48:52.063Z,10.80
2018-12-22T10:52:16.733Z,10.90
2018-12-22T10:55:41.499Z,10.90
2018-12-22T10:59:06.233Z,11.00
2018-12-22T11:02:30.911Z,11.20
2018-12-22T11:05:55.685Z,11.20
2018-12-22T11:09:21.159Z,11.20
2018-12-22T11:12:45.835Z,11.20
2018-12-22T11:16:10.686Z,11.20
2018-12-22T11:19:35.438Z,11.30
2018-12-22T11:23:00.151Z,11.40
2018-12-22T11:26:24.820Z,11.40
2018-12-22T11:29:49.475Z,11.30
2018-12-22T11:33:14.562Z,11.30
2018-12-22T11:36:39.519Z,11.30
2018-12-22T11:40:06.429Z,11.80
2018-12-22T11:43:31.381Z,12.30
2018-12-22T11:47:01.101Z,12.30
2018-12-22T11:50:27.688Z,12.00
2018-12-22T11:53:52.379Z,11.80
2018-12-22T11:57:17.077Z,11.70
2018-12-22T12:00:41.935Z,11.70
2018-12-22T12:04:06.741Z,11.60
2018-12-22T12:07:31.415Z,11.60
2018-12-22T12:10:56.228Z,11.60
2018-12-22T12:14:20.926Z,11.70
2018-12-22T12:19:04.935Z,11.70
2018-12-22T12:22:29.736Z,11.70
2018-12-22T12:25:54.381Z,11.60
2018-12-22T12:29:25.642Z,11.70
2018-12-22T12:32:50.263Z,11.80
2018-12-22T12:36:15.063Z,11.60
2018-12-22T12:39:39.678Z,11.20
2018-12-22T12:43:07.296Z,11.10
2018-12-22T12:46:46.040Z,11.00
2018-12-22T12:50:14.207Z,11.00
2018-12-22T12:53:39.133Z,11.10
2018-12-22T12:57:04.122Z,11.10
2018-12-22T13:00:28.937Z,11.00
2018-12-22T13:03:53.933Z,11.10
2018-12-22T13:07:18.871Z,11.30
2018-12-22T13:10:43.746Z,11.30
2018-12-22T13:14:16.512Z,11.10
2018-12-22T13:17:41.422Z,10.80
2018-12-22T13:21:08.974Z,10.40
2018-12-22T13:24:33.723Z,10.10
2018-12-22T13:27:58.566Z,9.90
2018-12-22T13:31:27.181Z,9.70
2018-12-22T13:34:52.702Z,9.50
2018-12-22T13:38:18.411Z,9.50
2018-12-22T13:41:43.282Z,9.40
2018-12-22T13:45:28.187Z,9.20
2018-12-22T13:48:53.497Z,9.20
2018-12-22T13:52:18.250Z,9.00
2018-12-22T13:55:42.936Z,8.80
2018-12-22T13:59:07.736Z,8.70
2018-12-22T14:02:37.245Z,8.60
2018-12-22T14:06:01.939Z,8.60
2018-12-22T14:09:26.613Z,8.60
2018-12-22T14:12:51.421Z,8.50
2018-12-22T14:16:30.156Z,8.50
2018-12-22T14:20:03.451Z,8.60
2018-12-22T14:23:39.867Z,8.60
2018-12-22T14:27:05.025Z,8.70
2018-12-22T14:30:29.865Z,8.70
2018-12-22T14:34:00.672Z,8.70
2018-12-22T14:37:25.322Z,8.70
2018-12-22T14:40:50.019Z,8.70
2018-12-22T14:44:14.727Z,8.70
2018-12-22T14:47:39.447Z,8.70
2018-12-22T14:51:04.179Z,8.70
2018-12-22T14:54:28.955Z,8.70
2018-12-22T14:58:00.094Z,8.60
2018-12-22T15:01:24.965Z,8.60
2018-12-22T15:04:49.573Z,8.60
2018-12-22T15:08:14.242Z,8.60
2018-12-22T15:11:38.859Z,8.70
2018-12-22T15:15:03.475Z,8.70
2018-12-22T15:18:28.113Z,8.80
2018-12-22T15:23:21.507Z,8.70
2018-12-22T15:26:46.193Z,8.70
2018-12-22T15:30:14.300Z,8.60
2018-12-22T15:33:39.160Z,8.60
2018-12-22T15:37:03.909Z,8.50
2018-12-22T15:40:28.664Z,8.50
2018-12-22T15:43:53.362Z,8.50
2018-12-22T15:47:18.051Z,8.70
2018-12-22T15:50:44.112Z,8.80
2018-12-22T15:54:09.031Z,9.10
2018-12-22T15:57:33.686Z,9.10
2018-12-22T16:00:58.364Z,9.20
2018-12-22T16:04:23.167Z,9.10
2018-12-22T16:07:47.915Z,9.20
2018-12-22T16:11:12.566Z,9.20
2018-12-22T16:14:37.256Z,9.20
2018-12-22T16:18:01.934Z,9.10
2018-12-22T16:21:26.640Z,9.10
2018-12-22T16:24:51.294Z,9.10
2018-12-22T16:28:23.443Z,9.10
2018-12-22T16:31:48.137Z,9.10
2018-12-22T16:35:12.894Z,9.10
2018-12-22T16:38:37.582Z,9.00
2018-12-22T16:42:02.257Z,8.90
2018-12-22T16:45:26.920Z,8.80
2018-12-22T16:48:51.572Z,8.70
2018-12-22T16:52:16.218Z,8.60
2018-12-22T16:55:40.856Z,8.60
2018-12-22T16:59:05.903Z,8.60
2018-12-22T17:02:56.331Z,8.70
2018-12-22T17:06:21.217Z,8.70
2018-12-22T17:09:45.908Z,8.70
2018-12-22T17:13:11.931Z,8.70
2018-12-22T17:16:36.810Z,8.80
2018-12-22T17:20:01.508Z,8.90
2018-12-22T17:23:42.379Z,8.90
2018-12-22T17:27:07.064Z,9.00
2018-12-22T17:30:31.710Z,9.10
2018-12-22T17:33:56.369Z,9.10
2018-12-22T17:37:21.116Z,9.00
2018-12-22T17:40:45.852Z,8.90
2018-12-22T17:44:10.506Z,8.80
2018-12-22T17:47:35.232Z,8.80
2018-12-22T17:50:59.917Z,8.90
2018-12-22T17:54:24.577Z,8.90
2018-12-22T17:57:49.232Z,8.90
2018-12-22T18:01:13.901Z,8.90
2018-12-22T18:04:38.555Z,8.90
2018-12-22T18:08:03.190Z,8.80
2018-12-22T18:11:28.026Z,8.70
2018-12-22T18:14:52.674Z,8.70
2018-12-22T18:18:17.387Z,8.70
2018-12-22T18:21:42.089Z,8.70
2018-12-22T18:25:10.169Z,8.70
2018-12-22T18:28:37.692Z,8.80
2018-12-22T18:32:02.338Z,8.80
2018-12-22T18:35:26.951Z,8.80
2018-12-22T18:38:51.638Z,8.90
2018-12-22T18:42:16.889Z,8.90
2018-12-22T18:45:41.483Z,8.90
2018-12-22T18:49:06.101Z,8.90
2018-12-22T18:52:30.708Z,8.90
2018-12-22T18:55:55.359Z,8.90
2018-12-22T18:59:21.941Z,8.90
2018-12-22T19:02:46.623Z,8.80
2018-12-22T19:06:11.274Z,8.80
2018-12-22T19:09:38.742Z,8.80
2018-12-22T19:13:03.399Z,8.80
2018-12-22T19:16:28.051Z,8.90
2018-12-22T19:19:53.395Z,8.90
2018-12-22T19:23:20.268Z,8.70
2018-12-22T19:26:44.955Z,8.50
2018-12-22T19:30:09.759Z,8.30
2018-12-22T19:33:34.471Z,8.10
2018-12-22T19:36:59.083Z,8.00
2018-12-22T19:40:23.727Z,7.80
2018-12-22T19:43:48.391Z,7.70
2018-12-22T19:47:13.110Z,7.60
2018-12-22T19:50:37.752Z,7.40
2018-12-22T19:54:02.423Z,7.30
2018-12-22T19:57:27.090Z,7.50
2018-12-22T20:00:51.732Z,7.60
2018-12-22T20:07:40.781Z,7.80
2018-12-22T20:11:05.444Z,7.80
2018-12-22T20:14:30.079Z,7.90
2018-12-22T20:17:54.798Z,7.90
2018-12-22T20:21:19.464Z,7.90
2018-12-22T20:24:44.178Z,7.90
2018-12-22T20:28:08.891Z,8.00
2018-12-22T20:31:33.516Z,7.90
2018-12-22T20:34:58.173Z,7.80
2018-12-22T20:38:22.832Z,7.80
2018-12-22T20:41:47.442Z,7.80
2018-12-22T20:45:12.071Z,7.80
2018-12-22T20:48:36.772Z,7.80
2018-12-22T20:52:01.450Z,7.70
2018-12-22T20:55:26.090Z,7.90
2018-12-22T20:58:50.777Z,7.90
2018-12-22T21:02:15.411Z,7.90
2018-12-22T21:05:47.693Z,7.80
2018-12-22T21:09:12.451Z,7.90
2018-12-22T21:12:37.044Z,7.90
2018-12-22T21:16:01.717Z,7.90
2018-12-22T21:19:26.516Z,7.90
2018-12-22T21:22:51.263Z,7.80
2018-12-22T21:26:15.970Z,7.80
2018-12-22T21:29:40.648Z,7.80
2018-12-22T21:33:05.300Z,7.80
2018-12-22T21:36:30.072Z,7.80
2018-12-22T21:39:54.780Z,7.70
2018-12-22T21:43:19.449Z,7.70
2018-12-22T21:46:44.069Z,7.60
2018-12-22T21:50:08.731Z,7.60
2018-12-22T21:53:33.355Z,7.70
2018-12-22T21:56:58.286Z,7.70
2018-12-22T22:00:23.134Z,7.80
2018-12-22T22:03:48.175Z,8.00
2018-12-22T22:07:13.028Z,8.00
2018-12-22T22:10:38.244Z,8.10
2018-12-22T22:14:03.043Z,8.10
2018-12-22T22:17:27.880Z,8.10
2018-12-22T22:20:52.724Z,8.20
2018-12-22T22:24:17.787Z,8.20
2018-12-22T22:27:43.057Z,8.20
2018-12-22T22:31:07.852Z,8.20
2018-12-22T22:34:35.530Z,8.20
2018-12-22T22:38:00.285Z,8.20
2018-12-22T22:41:25.098Z,8.30
2018-12-22T22:44:49.879Z,8.30
2018-12-22T22:48:15.630Z,8.30
2018-12-22T22:51:40.431Z,8.40
2018-12-22T22:55:05.441Z,8.40
2018-12-22T22:58:30.059Z,8.40
2018-12-22T23:01:54.734Z,8.40
2018-12-22T23:05:19.376Z,8.40
2018-12-22T23:08:44.037Z,8.40
2018-12-22T23:12:08.687Z,8.40
2018-12-22T23:15:33.345Z,8.30
2018-12-22T23:18:57.987Z,8.30
2018-12-22T23:22:22.674Z,8.40
2018-12-22T23:25:47.383Z,8.40
2018-12-22T23:29:12.079Z,8.40
2018-12-22T23:32:36.738Z,8.40
2018-12-22T23:36:01.329Z,8.30
2018-12-22T23:39:25.959Z,8.30
2018-12-22T23:42:50.636Z,8.30
2018-12-22T23:46:15.304Z,8.30
2018-12-22T23:49:42.639Z,8.40
2018-12-22T23:53:12.027Z,8.30
2018-12-22T23:56:39.584Z,8.30
